sensor_id;sensor_type;location;lat;lon;timestamp;temperature;humidity
12841;DHT22;6487;48.626;12.486;2023-06-19T00:00:23;18.60;80.60
12841;DHT22;6487;48.626;12.486;2023-06-19T00:02:52;18.60;80.00
12841;DHT22;6487;48.626;12.486;2023-06-19T00:05:20;18.50;79.30
12841;DHT22;6487;48.626;12.486;2023-06-19T00:07:50;18.40;80.00
12841;DHT22;6487;48.626;12.486;2023-06-19T00:10:18;18.40;81.10
12841;DHT22;6487;48.626;12.486;2023-06-19T00:12:47;18.40;81.30
12841;DHT22;6487;48.626;12.486;2023-06-19T00:15:23;18.30;80.60
12841;DHT22;6487;48.626;12.486;2023-06-19T00:17:51;18.30;80.40
12841;DHT22;6487;48.626;12.486;2023-06-19T00:20:19;18.20;80.30
12841;DHT22;6487;48.626;12.486;2023-06-19T00:22:52;18.20;80.70
12841;DHT22;6487;48.626;12.486;2023-06-19T00:25:21;18.20;82.40
12841;DHT22;6487;48.626;12.486;2023-06-19T00:27:49;18.10;81.50
12841;DHT22;6487;48.626;12.486;2023-06-19T00:30:20;18.10;81.90
12841;DHT22;6487;48.626;12.486;2023-06-19T00:32:51;18.00;81.90
12841;DHT22;6487;48.626;12.486;2023-06-19T00:35:20;18.00;82.60
12841;DHT22;6487;48.626;12.486;2023-06-19T00:37:49;18.00;81.80
12841;DHT22;6487;48.626;12.486;2023-06-19T00:40:26;18.00;83.50
12841;DHT22;6487;48.626;12.486;2023-06-19T00:42:55;18.00;83.20
12841;DHT22;6487;48.626;12.486;2023-06-19T00:45:26;17.80;81.90
12841;DHT22;6487;48.626;12.486;2023-06-19T00:47:56;17.80;83.30
12841;DHT22;6487;48.626;12.486;2023-06-19T00:50:28;17.90;83.20
12841;DHT22;6487;48.626;12.486;2023-06-19T00:52:58;17.80;83.20
12841;DHT22;6487;48.626;12.486;2023-06-19T00:55:29;17.80;83.90
12841;DHT22;6487;48.626;12.486;2023-06-19T00:58:00;17.80;84.30
12841;DHT22;6487;48.626;12.486;2023-06-19T01:00:30;17.80;85.00
12841;DHT22;6487;48.626;12.486;2023-06-19T01:03:04;17.70;84.10
12841;DHT22;6487;48.626;12.486;2023-06-19T01:05:33;17.70;84.10
12841;DHT22;6487;48.626;12.486;2023-06-19T01:08:10;17.60;83.30
12841;DHT22;6487;48.626;12.486;2023-06-19T01:10:51;17.70;84.20
12841;DHT22;6487;48.626;12.486;2023-06-19T01:13:28;17.70;84.20
12841;DHT22;6487;48.626;12.486;2023-06-19T01:16:04;17.60;84.80
12841;DHT22;6487;48.626;12.486;2023-06-19T01:18:34;17.50;82.50
12841;DHT22;6487;48.626;12.486;2023-06-19T01:21:10;17.50;82.10
12841;DHT22;6487;48.626;12.486;2023-06-19T01:23:41;17.50;83.20
12841;DHT22;6487;48.626;12.486;2023-06-19T01:26:13;17.50;83.40
12841;DHT22;6487;48.626;12.486;2023-06-19T01:28:42;17.50;83.40
12841;DHT22;6487;48.626;12.486;2023-06-19T01:31:15;17.40;83.60
12841;DHT22;6487;48.626;12.486;2023-06-19T01:33:47;17.30;82.80
12841;DHT22;6487;48.626;12.486;2023-06-19T01:36:19;17.40;84.10
12841;DHT22;6487;48.626;12.486;2023-06-19T01:38:50;17.40;83.90
12841;DHT22;6487;48.626;12.486;2023-06-19T01:41:19;17.40;84.10
12841;DHT22;6487;48.626;12.486;2023-06-19T01:43:49;17.40;84.20
12841;DHT22;6487;48.626;12.486;2023-06-19T01:46:18;17.40;84.40
12841;DHT22;6487;48.626;12.486;2023-06-19T01:48:46;17.30;84.80
12841;DHT22;6487;48.626;12.486;2023-06-19T01:51:15;17.30;86.30
12841;DHT22;6487;48.626;12.486;2023-06-19T01:53:47;17.20;85.40
12841;DHT22;6487;48.626;12.486;2023-06-19T01:56:17;17.10;86.50
12841;DHT22;6487;48.626;12.486;2023-06-19T01:58:45;17.10;86.30
12841;DHT22;6487;48.626;12.486;2023-06-19T02:01:17;17.10;87.50
12841;DHT22;6487;48.626;12.486;2023-06-19T02:03:45;17.00;88.00
12841;DHT22;6487;48.626;12.486;2023-06-19T02:06:14;17.00;88.40
12841;DHT22;6487;48.626;12.486;2023-06-19T02:08:42;17.00;88.20
12841;DHT22;6487;48.626;12.486;2023-06-19T02:11:10;17.00;88.80
12841;DHT22;6487;48.626;12.486;2023-06-19T02:13:40;17.10;89.20
12841;DHT22;6487;48.626;12.486;2023-06-19T02:16:09;17.10;89.50
12841;DHT22;6487;48.626;12.486;2023-06-19T02:18:37;17.10;89.70
12841;DHT22;6487;48.626;12.486;2023-06-19T02:21:05;17.00;89.70
12841;DHT22;6487;48.626;12.486;2023-06-19T02:23:34;16.90;89.50
12841;DHT22;6487;48.626;12.486;2023-06-19T02:26:03;17.00;90.00
12841;DHT22;6487;48.626;12.486;2023-06-19T02:28:33;17.10;90.20
12841;DHT22;6487;48.626;12.486;2023-06-19T02:31:03;17.10;90.20
12841;DHT22;6487;48.626;12.486;2023-06-19T02:33:31;17.10;90.30
12841;DHT22;6487;48.626;12.486;2023-06-19T02:36:00;17.10;90.40
12841;DHT22;6487;48.626;12.486;2023-06-19T02:38:28;17.10;90.20
12841;DHT22;6487;48.626;12.486;2023-06-19T02:40:57;17.10;90.30
12841;DHT22;6487;48.626;12.486;2023-06-19T02:43:28;17.10;90.60
12841;DHT22;6487;48.626;12.486;2023-06-19T02:45:57;17.10;90.50
12841;DHT22;6487;48.626;12.486;2023-06-19T02:48:27;17.20;90.40
12841;DHT22;6487;48.626;12.486;2023-06-19T02:50:56;17.10;90.00
12841;DHT22;6487;48.626;12.486;2023-06-19T02:53:24;17.10;90.50
12841;DHT22;6487;48.626;12.486;2023-06-19T02:55:52;17.20;90.40
12841;DHT22;6487;48.626;12.486;2023-06-19T02:58:21;17.20;90.80
12841;DHT22;6487;48.626;12.486;2023-06-19T03:00:49;17.20;90.90
12841;DHT22;6487;48.626;12.486;2023-06-19T03:03:18;17.20;90.80
12841;DHT22;6487;48.626;12.486;2023-06-19T03:05:47;17.20;91.30
12841;DHT22;6487;48.626;12.486;2023-06-19T03:08:16;17.30;91.60
12841;DHT22;6487;48.626;12.486;2023-06-19T03:10:44;17.20;91.60
12841;DHT22;6487;48.626;12.486;2023-06-19T03:13:13;17.20;91.70
12841;DHT22;6487;48.626;12.486;2023-06-19T03:15:41;17.30;92.10
12841;DHT22;6487;48.626;12.486;2023-06-19T03:18:09;17.20;91.20
12841;DHT22;6487;48.626;12.486;2023-06-19T03:20:39;17.20;91.70
12841;DHT22;6487;48.626;12.486;2023-06-19T03:23:09;17.20;90.80
12841;DHT22;6487;48.626;12.486;2023-06-19T03:25:37;17.20;91.30
12841;DHT22;6487;48.626;12.486;2023-06-19T03:28:11;17.20;91.20
12841;DHT22;6487;48.626;12.486;2023-06-19T03:30:43;17.20;91.00
12841;DHT22;6487;48.626;12.486;2023-06-19T03:33:11;17.30;92.10
12841;DHT22;6487;48.626;12.486;2023-06-19T03:35:42;17.30;92.80
12841;DHT22;6487;48.626;12.486;2023-06-19T03:38:12;17.40;92.20
12841;DHT22;6487;48.626;12.486;2023-06-19T03:40:41;17.50;92.20
12841;DHT22;6487;48.626;12.486;2023-06-19T03:43:09;17.40;92.30
12841;DHT22;6487;48.626;12.486;2023-06-19T03:45:38;17.50;92.60
12841;DHT22;6487;48.626;12.486;2023-06-19T03:48:06;17.50;92.20
12841;DHT22;6487;48.626;12.486;2023-06-19T03:50:35;17.50;92.60
12841;DHT22;6487;48.626;12.486;2023-06-19T03:53:03;17.50;92.40
12841;DHT22;6487;48.626;12.486;2023-06-19T03:55:34;17.50;92.00
12841;DHT22;6487;48.626;12.486;2023-06-19T03:58:02;17.60;91.60
12841;DHT22;6487;48.626;12.486;2023-06-19T04:00:31;17.60;91.60
12841;DHT22;6487;48.626;12.486;2023-06-19T04:03:00;17.60;91.80
12841;DHT22;6487;48.626;12.486;2023-06-19T04:05:28;17.60;91.90
12841;DHT22;6487;48.626;12.486;2023-06-19T04:07:57;17.70;92.20
12841;DHT22;6487;48.626;12.486;2023-06-19T04:10:25;17.70;92.20
12841;DHT22;6487;48.626;12.486;2023-06-19T04:12:55;17.70;92.10
12841;DHT22;6487;48.626;12.486;2023-06-19T04:15:24;17.80;92.30
12841;DHT22;6487;48.626;12.486;2023-06-19T04:17:53;17.80;92.30
12841;DHT22;6487;48.626;12.486;2023-06-19T04:20:21;17.80;92.50
12841;DHT22;6487;48.626;12.486;2023-06-19T04:22:50;17.70;92.30
12841;DHT22;6487;48.626;12.486;2023-06-19T04:25:22;17.60;92.50
12841;DHT22;6487;48.626;12.486;2023-06-19T04:27:50;17.80;92.70
12841;DHT22;6487;48.626;12.486;2023-06-19T04:30:23;17.90;92.50
12841;DHT22;6487;48.626;12.486;2023-06-19T04:32:52;17.90;92.80
12841;DHT22;6487;48.626;12.486;2023-06-19T04:35:20;17.80;92.50
12841;DHT22;6487;48.626;12.486;2023-06-19T04:37:50;17.70;91.70
12841;DHT22;6487;48.626;12.486;2023-06-19T04:40:19;17.70;91.80
12841;DHT22;6487;48.626;12.486;2023-06-19T04:42:47;17.70;91.70
12841;DHT22;6487;48.626;12.486;2023-06-19T04:45:16;17.70;91.40
12841;DHT22;6487;48.626;12.486;2023-06-19T04:47:45;17.90;91.50
12841;DHT22;6487;48.626;12.486;2023-06-19T04:50:20;18.00;91.90
12841;DHT22;6487;48.626;12.486;2023-06-19T04:52:51;17.90;92.80
12841;DHT22;6487;48.626;12.486;2023-06-19T04:55:20;17.90;92.60
12841;DHT22;6487;48.626;12.486;2023-06-19T04:57:48;18.00;92.50
12841;DHT22;6487;48.626;12.486;2023-06-19T05:00:17;18.10;92.30
12841;DHT22;6487;48.626;12.486;2023-06-19T05:02:50;18.10;93.70
12841;DHT22;6487;48.626;12.486;2023-06-19T05:05:29;18.20;93.10
12841;DHT22;6487;48.626;12.486;2023-06-19T05:07:58;18.30;93.20
12841;DHT22;6487;48.626;12.486;2023-06-19T05:10:27;18.40;93.30
12841;DHT22;6487;48.626;12.486;2023-06-19T05:12:58;18.40;93.60
12841;DHT22;6487;48.626;12.486;2023-06-19T05:15:27;18.50;92.90
12841;DHT22;6487;48.626;12.486;2023-06-19T05:17:57;18.60;94.10
12841;DHT22;6487;48.626;12.486;2023-06-19T05:20:25;18.60;94.10
12841;DHT22;6487;48.626;12.486;2023-06-19T05:22:54;18.70;94.10
12841;DHT22;6487;48.626;12.486;2023-06-19T05:25:22;18.60;93.60
12841;DHT22;6487;48.626;12.486;2023-06-19T05:27:51;18.60;93.70
12841;DHT22;6487;48.626;12.486;2023-06-19T05:30:19;18.70;94.50
12841;DHT22;6487;48.626;12.486;2023-06-19T05:32:48;18.80;93.50
12841;DHT22;6487;48.626;12.486;2023-06-19T05:35:18;18.90;93.30
12841;DHT22;6487;48.626;12.486;2023-06-19T05:37:46;19.00;95.00
12841;DHT22;6487;48.626;12.486;2023-06-19T05:40:15;19.10;94.60
12841;DHT22;6487;48.626;12.486;2023-06-19T05:42:46;19.10;94.20
12841;DHT22;6487;48.626;12.486;2023-06-19T05:45:15;19.20;95.20
12841;DHT22;6487;48.626;12.486;2023-06-19T05:47:43;19.30;94.90
12841;DHT22;6487;48.626;12.486;2023-06-19T05:50:12;19.30;94.60
12841;DHT22;6487;48.626;12.486;2023-06-19T05:52:44;19.40;94.30
12841;DHT22;6487;48.626;12.486;2023-06-19T05:55:12;19.40;94.40
12841;DHT22;6487;48.626;12.486;2023-06-19T05:57:41;19.40;94.30
12841;DHT22;6487;48.626;12.486;2023-06-19T06:00:11;19.40;93.40
12841;DHT22;6487;48.626;12.486;2023-06-19T06:02:42;19.50;93.90
12841;DHT22;6487;48.626;12.486;2023-06-19T06:05:10;19.50;93.90
12841;DHT22;6487;48.626;12.486;2023-06-19T06:07:39;19.60;95.50
12841;DHT22;6487;48.626;12.486;2023-06-19T06:10:10;19.60;95.90
12841;DHT22;6487;48.626;12.486;2023-06-19T06:12:38;19.60;95.00
12841;DHT22;6487;48.626;12.486;2023-06-19T06:15:07;19.60;94.90
12841;DHT22;6487;48.626;12.486;2023-06-19T06:17:36;19.70;95.10
12841;DHT22;6487;48.626;12.486;2023-06-19T06:20:05;19.70;95.40
12841;DHT22;6487;48.626;12.486;2023-06-19T06:22:39;19.80;95.30
12841;DHT22;6487;48.626;12.486;2023-06-19T06:25:09;19.90;94.70
12841;DHT22;6487;48.626;12.486;2023-06-19T06:27:40;19.90;94.60
12841;DHT22;6487;48.626;12.486;2023-06-19T06:30:10;20.00;94.90
12841;DHT22;6487;48.626;12.486;2023-06-19T06:32:40;20.10;95.60
12841;DHT22;6487;48.626;12.486;2023-06-19T06:35:08;20.20;94.70
12841;DHT22;6487;48.626;12.486;2023-06-19T06:37:37;20.20;93.10
12841;DHT22;6487;48.626;12.486;2023-06-19T06:40:13;20.30;92.70
12841;DHT22;6487;48.626;12.486;2023-06-19T06:42:43;20.30;93.60
12841;DHT22;6487;48.626;12.486;2023-06-19T06:45:11;20.40;93.40
12841;DHT22;6487;48.626;12.486;2023-06-19T06:47:40;20.40;93.50
12841;DHT22;6487;48.626;12.486;2023-06-19T06:50:09;20.50;93.90
12841;DHT22;6487;48.626;12.486;2023-06-19T06:52:38;20.50;93.80
12841;DHT22;6487;48.626;12.486;2023-06-19T06:55:09;20.50;93.90
12841;DHT22;6487;48.626;12.486;2023-06-19T06:57:39;20.60;93.90
12841;DHT22;6487;48.626;12.486;2023-06-19T07:00:12;20.70;93.80
12841;DHT22;6487;48.626;12.486;2023-06-19T07:02:41;20.80;93.20
12841;DHT22;6487;48.626;12.486;2023-06-19T07:05:10;20.90;93.40
12841;DHT22;6487;48.626;12.486;2023-06-19T07:07:40;21.00;92.80
12841;DHT22;6487;48.626;12.486;2023-06-19T07:10:09;21.00;93.00
12841;DHT22;6487;48.626;12.486;2023-06-19T07:12:46;21.10;93.30
12841;DHT22;6487;48.626;12.486;2023-06-19T07:15:15;21.20;93.60
12841;DHT22;6487;48.626;12.486;2023-06-19T07:17:44;21.20;92.80
12841;DHT22;6487;48.626;12.486;2023-06-19T07:20:13;21.20;93.20
12841;DHT22;6487;48.626;12.486;2023-06-19T07:22:43;21.40;92.70
12841;DHT22;6487;48.626;12.486;2023-06-19T07:25:14;21.50;92.20
12841;DHT22;6487;48.626;12.486;2023-06-19T07:27:44;21.50;92.90
12841;DHT22;6487;48.626;12.486;2023-06-19T07:30:13;21.70;93.30
12841;DHT22;6487;48.626;12.486;2023-06-19T07:32:46;21.80;93.00
12841;DHT22;6487;48.626;12.486;2023-06-19T07:35:14;21.70;92.50
12841;DHT22;6487;48.626;12.486;2023-06-19T07:37:46;21.70;92.60
12841;DHT22;6487;48.626;12.486;2023-06-19T07:40:14;21.90;93.20
12841;DHT22;6487;48.626;12.486;2023-06-19T07:42:44;22.00;93.70
12841;DHT22;6487;48.626;12.486;2023-06-19T07:45:13;22.10;94.00
12841;DHT22;6487;48.626;12.486;2023-06-19T07:47:41;22.10;92.90
12841;DHT22;6487;48.626;12.486;2023-06-19T07:50:10;22.10;92.90
12841;DHT22;6487;48.626;12.486;2023-06-19T07:52:38;22.20;92.40
12841;DHT22;6487;48.626;12.486;2023-06-19T07:55:07;22.20;92.30
12841;DHT22;6487;48.626;12.486;2023-06-19T07:57:36;22.30;92.00
12841;DHT22;6487;48.626;12.486;2023-06-19T08:00:07;22.30;92.40
12841;DHT22;6487;48.626;12.486;2023-06-19T08:02:38;22.50;93.10
12841;DHT22;6487;48.626;12.486;2023-06-19T08:05:08;22.60;92.80
12841;DHT22;6487;48.626;12.486;2023-06-19T08:07:37;22.60;91.30
12841;DHT22;6487;48.626;12.486;2023-06-19T08:10:06;22.70;92.20
12841;DHT22;6487;48.626;12.486;2023-06-19T08:12:53;22.90;91.40
12841;DHT22;6487;48.626;12.486;2023-06-19T08:15:23;23.00;91.50
12841;DHT22;6487;48.626;12.486;2023-06-19T08:17:52;23.20;91.70
12841;DHT22;6487;48.626;12.486;2023-06-19T08:20:20;23.40;91.10
12841;DHT22;6487;48.626;12.486;2023-06-19T08:22:50;23.60;90.90
12841;DHT22;6487;48.626;12.486;2023-06-19T08:25:19;23.70;90.60
12841;DHT22;6487;48.626;12.486;2023-06-19T08:27:47;23.90;90.90
12841;DHT22;6487;48.626;12.486;2023-06-19T08:30:16;24.10;90.20
12841;DHT22;6487;48.626;12.486;2023-06-19T08:32:48;24.20;90.40
12841;DHT22;6487;48.626;12.486;2023-06-19T08:35:17;24.30;88.50
12841;DHT22;6487;48.626;12.486;2023-06-19T08:37:45;24.40;88.40
12841;DHT22;6487;48.626;12.486;2023-06-19T08:40:13;24.40;88.40
12841;DHT22;6487;48.626;12.486;2023-06-19T08:42:42;24.60;89.70
12841;DHT22;6487;48.626;12.486;2023-06-19T08:45:14;24.60;87.70
12841;DHT22;6487;48.626;12.486;2023-06-19T08:47:43;24.70;86.80
12841;DHT22;6487;48.626;12.486;2023-06-19T08:50:13;25.00;89.30
12841;DHT22;6487;48.626;12.486;2023-06-19T08:52:41;25.10;90.10
12841;DHT22;6487;48.626;12.486;2023-06-19T08:55:12;25.30;88.90
12841;DHT22;6487;48.626;12.486;2023-06-19T08:57:43;25.50;86.30
12841;DHT22;6487;48.626;12.486;2023-06-19T09:00:22;25.60;86.20
12841;DHT22;6487;48.626;12.486;2023-06-19T09:02:59;25.50;83.70
12841;DHT22;6487;48.626;12.486;2023-06-19T09:05:42;25.60;84.40
12841;DHT22;6487;48.626;12.486;2023-06-19T09:08:18;25.90;86.70
12841;DHT22;6487;48.626;12.486;2023-06-19T09:10:57;25.90;86.80
12841;DHT22;6487;48.626;12.486;2023-06-19T09:13:26;26.00;86.70
12841;DHT22;6487;48.626;12.486;2023-06-19T09:16:00;26.10;87.50
12841;DHT22;6487;48.626;12.486;2023-06-19T09:18:29;26.20;86.90
12841;DHT22;6487;48.626;12.486;2023-06-19T09:21:00;26.30;86.90
12841;DHT22;6487;48.626;12.486;2023-06-19T09:23:28;26.30;86.00
12841;DHT22;6487;48.626;12.486;2023-06-19T09:25:57;26.40;89.00
12841;DHT22;6487;48.626;12.486;2023-06-19T09:28:27;26.40;87.10
12841;DHT22;6487;48.626;12.486;2023-06-19T09:30:57;26.40;86.60
12841;DHT22;6487;48.626;12.486;2023-06-19T09:33:27;26.40;85.90
12841;DHT22;6487;48.626;12.486;2023-06-19T09:35:57;26.40;86.10
12841;DHT22;6487;48.626;12.486;2023-06-19T09:38:29;26.50;87.90
12841;DHT22;6487;48.626;12.486;2023-06-19T09:41:01;26.70;88.20
12841;DHT22;6487;48.626;12.486;2023-06-19T09:43:34;26.90;86.00
12841;DHT22;6487;48.626;12.486;2023-06-19T09:46:05;27.00;85.30
12841;DHT22;6487;48.626;12.486;2023-06-19T09:48:35;27.10;84.80
12841;DHT22;6487;48.626;12.486;2023-06-19T09:51:09;27.00;84.10
12841;DHT22;6487;48.626;12.486;2023-06-19T09:53:40;27.10;84.50
12841;DHT22;6487;48.626;12.486;2023-06-19T09:56:12;27.20;86.70
12841;DHT22;6487;48.626;12.486;2023-06-19T09:58:42;27.10;84.40
12841;DHT22;6487;48.626;12.486;2023-06-19T10:01:11;27.10;82.50
12841;DHT22;6487;48.626;12.486;2023-06-19T10:03:41;27.10;86.60
12841;DHT22;6487;48.626;12.486;2023-06-19T10:06:13;27.30;83.60
12841;DHT22;6487;48.626;12.486;2023-06-19T10:08:45;27.40;80.30
12841;DHT22;6487;48.626;12.486;2023-06-19T10:11:14;27.50;80.80
12841;DHT22;6487;48.626;12.486;2023-06-19T10:13:42;27.60;83.60
12841;DHT22;6487;48.626;12.486;2023-06-19T10:16:20;27.60;82.60
12841;DHT22;6487;48.626;12.486;2023-06-19T10:18:49;27.70;79.70
12841;DHT22;6487;48.626;12.486;2023-06-19T10:21:19;27.60;81.00
12841;DHT22;6487;48.626;12.486;2023-06-19T10:23:56;27.70;79.50
12841;DHT22;6487;48.626;12.486;2023-06-19T10:26:32;27.70;77.40
12841;DHT22;6487;48.626;12.486;2023-06-19T10:29:13;27.90;78.50
12841;DHT22;6487;48.626;12.486;2023-06-19T10:31:42;27.90;77.00
12841;DHT22;6487;48.626;12.486;2023-06-19T10:34:12;28.00;77.10
12841;DHT22;6487;48.626;12.486;2023-06-19T10:36:40;27.90;79.50
12841;DHT22;6487;48.626;12.486;2023-06-19T10:39:10;28.10;77.20
12841;DHT22;6487;48.626;12.486;2023-06-19T10:41:40;28.10;76.10
12841;DHT22;6487;48.626;12.486;2023-06-19T10:44:08;28.30;78.00
12841;DHT22;6487;48.626;12.486;2023-06-19T10:46:39;28.50;76.90
12841;DHT22;6487;48.626;12.486;2023-06-19T10:49:09;28.50;77.80
12841;DHT22;6487;48.626;12.486;2023-06-19T10:51:41;28.60;76.10
12841;DHT22;6487;48.626;12.486;2023-06-19T10:54:11;28.40;76.50
12841;DHT22;6487;48.626;12.486;2023-06-19T10:56:40;28.40;76.10
12841;DHT22;6487;48.626;12.486;2023-06-19T10:59:10;28.60;75.10
12841;DHT22;6487;48.626;12.486;2023-06-19T11:01:41;28.70;75.00
12841;DHT22;6487;48.626;12.486;2023-06-19T11:04:11;28.60;75.80
12841;DHT22;6487;48.626;12.486;2023-06-19T11:06:42;28.60;75.40
12841;DHT22;6487;48.626;12.486;2023-06-19T11:09:13;28.60;74.70
12841;DHT22;6487;48.626;12.486;2023-06-19T11:11:43;28.60;74.60
12841;DHT22;6487;48.626;12.486;2023-06-19T11:14:13;28.70;74.20
12841;DHT22;6487;48.626;12.486;2023-06-19T11:16:44;28.50;74.90
12841;DHT22;6487;48.626;12.486;2023-06-19T11:19:16;28.50;75.40
12841;DHT22;6487;48.626;12.486;2023-06-19T11:21:47;28.60;75.10
12841;DHT22;6487;48.626;12.486;2023-06-19T11:24:18;28.70;73.70
12841;DHT22;6487;48.626;12.486;2023-06-19T11:26:48;28.70;75.40
12841;DHT22;6487;48.626;12.486;2023-06-19T11:29:20;28.80;74.50
12841;DHT22;6487;48.626;12.486;2023-06-19T11:31:50;28.80;75.00
12841;DHT22;6487;48.626;12.486;2023-06-19T11:34:31;28.90;75.60
12841;DHT22;6487;48.626;12.486;2023-06-19T11:37:00;28.90;76.90
12841;DHT22;6487;48.626;12.486;2023-06-19T11:39:30;28.90;72.40
12841;DHT22;6487;48.626;12.486;2023-06-19T11:41:59;28.90;74.30
12841;DHT22;6487;48.626;12.486;2023-06-19T11:44:27;28.70;75.20
12841;DHT22;6487;48.626;12.486;2023-06-19T11:46:57;28.70;75.10
12841;DHT22;6487;48.626;12.486;2023-06-19T11:49:26;28.90;72.90
12841;DHT22;6487;48.626;12.486;2023-06-19T11:51:55;28.90;76.10
12841;DHT22;6487;48.626;12.486;2023-06-19T11:54:24;29.10;77.10
12841;DHT22;6487;48.626;12.486;2023-06-19T11:56:54;29.00;75.20
12841;DHT22;6487;48.626;12.486;2023-06-19T11:59:22;28.70;72.90
12841;DHT22;6487;48.626;12.486;2023-06-19T12:01:51;28.70;73.60
12841;DHT22;6487;48.626;12.486;2023-06-19T12:04:19;28.80;72.90
12841;DHT22;6487;48.626;12.486;2023-06-19T12:06:48;28.50;72.80
12841;DHT22;6487;48.626;12.486;2023-06-19T12:09:17;28.60;73.90
12841;DHT22;6487;48.626;12.486;2023-06-19T12:11:45;28.70;73.00
12841;DHT22;6487;48.626;12.486;2023-06-19T12:14:15;28.80;74.20
12841;DHT22;6487;48.626;12.486;2023-06-19T12:16:47;28.90;73.80
12841;DHT22;6487;48.626;12.486;2023-06-19T12:19:16;28.90;73.80
12841;DHT22;6487;48.626;12.486;2023-06-19T12:21:53;29.00;74.70
12841;DHT22;6487;48.626;12.486;2023-06-19T12:24:21;28.90;74.50
12841;DHT22;6487;48.626;12.486;2023-06-19T12:26:49;29.00;72.90
12841;DHT22;6487;48.626;12.486;2023-06-19T12:29:19;29.00;74.70
12841;DHT22;6487;48.626;12.486;2023-06-19T12:31:48;29.20;73.70
12841;DHT22;6487;48.626;12.486;2023-06-19T12:34:16;29.40;74.00
12841;DHT22;6487;48.626;12.486;2023-06-19T12:36:56;29.50;71.70
12841;DHT22;6487;48.626;12.486;2023-06-19T12:39:25;29.40;69.00
12841;DHT22;6487;48.626;12.486;2023-06-19T12:41:57;29.40;71.80
12841;DHT22;6487;48.626;12.486;2023-06-19T12:44:29;29.40;69.80
12841;DHT22;6487;48.626;12.486;2023-06-19T12:46:58;29.40;71.20
12841;DHT22;6487;48.626;12.486;2023-06-19T12:49:27;29.40;70.40
12841;DHT22;6487;48.626;12.486;2023-06-19T12:51:55;29.40;71.30
12841;DHT22;6487;48.626;12.486;2023-06-19T12:54:25;29.40;72.50
12841;DHT22;6487;48.626;12.486;2023-06-19T12:56:53;29.30;70.50
12841;DHT22;6487;48.626;12.486;2023-06-19T12:59:22;29.20;73.00
12841;DHT22;6487;48.626;12.486;2023-06-19T13:01:51;29.20;73.70
12841;DHT22;6487;48.626;12.486;2023-06-19T13:04:20;29.20;73.60
12841;DHT22;6487;48.626;12.486;2023-06-19T13:06:48;28.90;73.60
12841;DHT22;6487;48.626;12.486;2023-06-19T13:09:17;29.00;74.90
12841;DHT22;6487;48.626;12.486;2023-06-19T13:11:45;28.80;73.10
12841;DHT22;6487;48.626;12.486;2023-06-19T13:14:14;28.70;72.40
12841;DHT22;6487;48.626;12.486;2023-06-19T13:16:42;28.60;73.30
12841;DHT22;6487;48.626;12.486;2023-06-19T13:19:14;28.60;73.70
12841;DHT22;6487;48.626;12.486;2023-06-19T13:21:43;28.60;72.90
12841;DHT22;6487;48.626;12.486;2023-06-19T13:24:12;28.60;74.00
12841;DHT22;6487;48.626;12.486;2023-06-19T13:26:40;28.50;77.60
12841;DHT22;6487;48.626;12.486;2023-06-19T13:29:09;28.50;78.60
12841;DHT22;6487;48.626;12.486;2023-06-19T13:31:37;28.50;78.20
12841;DHT22;6487;48.626;12.486;2023-06-19T13:34:06;28.60;77.10
12841;DHT22;6487;48.626;12.486;2023-06-19T13:36:35;28.60;72.00
12841;DHT22;6487;48.626;12.486;2023-06-19T13:39:04;28.60;76.00
12841;DHT22;6487;48.626;12.486;2023-06-19T13:41:32;28.60;74.40
12841;DHT22;6487;48.626;12.486;2023-06-19T13:44:01;28.70;75.60
12841;DHT22;6487;48.626;12.486;2023-06-19T13:46:29;28.70;73.60
12841;DHT22;6487;48.626;12.486;2023-06-19T13:48:59;28.60;76.00
12841;DHT22;6487;48.626;12.486;2023-06-19T13:51:27;28.70;75.80
12841;DHT22;6487;48.626;12.486;2023-06-19T13:53:57;28.80;74.90
12841;DHT22;6487;48.626;12.486;2023-06-19T13:56:26;28.70;73.50
12841;DHT22;6487;48.626;12.486;2023-06-19T13:58:54;28.80;73.10
12841;DHT22;6487;48.626;12.486;2023-06-19T14:01:22;28.70;72.80
12841;DHT22;6487;48.626;12.486;2023-06-19T14:03:52;28.90;73.50
12841;DHT22;6487;48.626;12.486;2023-06-19T14:06:20;29.20;75.50
12841;DHT22;6487;48.626;12.486;2023-06-19T14:08:49;29.30;76.40
12841;DHT22;6487;48.626;12.486;2023-06-19T14:11:19;29.50;72.00
12841;DHT22;6487;48.626;12.486;2023-06-19T14:13:49;29.70;72.00
12841;DHT22;6487;48.626;12.486;2023-06-19T14:16:18;29.60;73.00
12841;DHT22;6487;48.626;12.486;2023-06-19T14:18:46;29.60;70.90
12841;DHT22;6487;48.626;12.486;2023-06-19T14:21:15;29.80;70.00
12841;DHT22;6487;48.626;12.486;2023-06-19T14:23:43;29.90;70.00
12841;DHT22;6487;48.626;12.486;2023-06-19T14:26:12;30.00;68.50
12841;DHT22;6487;48.626;12.486;2023-06-19T14:28:41;30.10;70.40
12841;DHT22;6487;48.626;12.486;2023-06-19T14:31:10;30.10;69.80
12841;DHT22;6487;48.626;12.486;2023-06-19T14:33:38;29.80;70.30
12841;DHT22;6487;48.626;12.486;2023-06-19T14:36:06;29.90;72.40
12841;DHT22;6487;48.626;12.486;2023-06-19T14:38:35;30.10;69.80
12841;DHT22;6487;48.626;12.486;2023-06-19T14:41:03;30.10;67.50
12841;DHT22;6487;48.626;12.486;2023-06-19T14:43:31;30.10;69.20
12841;DHT22;6487;48.626;12.486;2023-06-19T14:46:03;30.30;67.90
12841;DHT22;6487;48.626;12.486;2023-06-19T14:48:32;30.50;67.50
12841;DHT22;6487;48.626;12.486;2023-06-19T14:51:00;30.50;65.80
12841;DHT22;6487;48.626;12.486;2023-06-19T14:53:31;30.40;67.90
12841;DHT22;6487;48.626;12.486;2023-06-19T14:56:00;30.40;68.40
12841;DHT22;6487;48.626;12.486;2023-06-19T14:58:29;30.70;68.00
12841;DHT22;6487;48.626;12.486;2023-06-19T15:00:58;30.80;67.20
12841;DHT22;6487;48.626;12.486;2023-06-19T15:03:27;30.60;68.60
12841;DHT22;6487;48.626;12.486;2023-06-19T15:05:56;30.40;69.50
12841;DHT22;6487;48.626;12.486;2023-06-19T15:08:24;30.50;68.80
12841;DHT22;6487;48.626;12.486;2023-06-19T15:10:53;30.80;67.10
12841;DHT22;6487;48.626;12.486;2023-06-19T15:13:21;30.90;67.90
12841;DHT22;6487;48.626;12.486;2023-06-19T15:15:49;30.80;68.00
12841;DHT22;6487;48.626;12.486;2023-06-19T15:18:18;30.90;67.70
12841;DHT22;6487;48.626;12.486;2023-06-19T15:20:48;31.00;66.30
12841;DHT22;6487;48.626;12.486;2023-06-19T15:23:17;31.10;66.10
12841;DHT22;6487;48.626;12.486;2023-06-19T15:25:45;31.00;69.20
12841;DHT22;6487;48.626;12.486;2023-06-19T15:28:15;30.90;66.90
12841;DHT22;6487;48.626;12.486;2023-06-19T15:30:45;31.10;68.60
12841;DHT22;6487;48.626;12.486;2023-06-19T15:33:13;31.00;64.10
12841;DHT22;6487;48.626;12.486;2023-06-19T15:35:44;31.00;65.50
12841;DHT22;6487;48.626;12.486;2023-06-19T15:38:15;31.10;66.60
12841;DHT22;6487;48.626;12.486;2023-06-19T15:40:44;31.20;67.30
12841;DHT22;6487;48.626;12.486;2023-06-19T15:43:13;31.10;65.50
12841;DHT22;6487;48.626;12.486;2023-06-19T15:45:41;30.90;65.00